createdAt,value
2019-02-26T00:00:52.417Z,18.19
2019-02-26T00:01:50.739Z,18.19
2019-02-26T00:02:51.181Z,18.19
2019-02-26T00:03:48.105Z,18.19
2019-02-26T00:04:44.730Z,18.19
2019-02-26T00:05:41.354Z,18.19
2019-02-26T00:06:38.078Z,18.19
2019-02-26T00:07:34.707Z,18.19
2019-02-26T00:08:33.377Z,18.19
2019-02-26T00:09:30.620Z,18.12
2019-02-26T00:10:29.032Z,18.12
2019-02-26T00:11:28.522Z,18.12
2019-02-26T00:12:26.378Z,18.12
2019-02-26T00:13:24.997Z,18.12
2019-02-26T00:14:22.566Z,18.12
2019-02-26T00:15:20.658Z,18.12
2019-02-26T00:16:18.387Z,18.12
2019-02-26T00:17:17.563Z,18.12
2019-02-26T00:18:16.789Z,18.12
2019-02-26T00:19:14.408Z,18.12
2019-02-26T00:20:12.811Z,18.12
2019-02-26T00:21:09.745Z,18.12
2019-02-26T00:22:07.744Z,18.12
2019-02-26T00:23:04.906Z,18.12
2019-02-26T00:24:01.794Z,18.12
2019-02-26T00:24:58.486Z,18.12
2019-02-26T00:25:55.104Z,18.12
2019-02-26T00:26:52.074Z,18.12
2019-02-26T00:27:49.625Z,18.12
2019-02-26T00:28:47.206Z,18.12
2019-02-26T00:29:44.254Z,18.12
2019-02-26T00:30:42.524Z,18.12
2019-02-26T00:31:39.301Z,18.12
2019-02-26T00:32:37.811Z,18.12
2019-02-26T00:33:34.534Z,18.12
2019-02-26T00:34:32.389Z,18.12
2019-02-26T00:35:29.929Z,18.12
2019-02-26T00:36:27.116Z,18.12
2019-02-26T00:37:26.354Z,18.12
2019-02-26T00:38:23.580Z,18.12
2019-02-26T00:39:20.628Z,18.12
2019-02-26T00:40:20.233Z,18.12
2019-02-26T00:41:20.304Z,18.12
2019-02-26T00:42:19.558Z,18.12
2019-02-26T00:43:14.218Z,18.12
2019-02-26T00:44:10.833Z,18.06
2019-02-26T00:45:07.956Z,18.06
2019-02-26T00:46:05.598Z,18.12
2019-02-26T00:47:04.820Z,18.06
2019-02-26T00:48:01.930Z,18.06
2019-02-26T00:48:59.118Z,18.06
2019-02-26T00:49:57.071Z,18.06
2019-02-26T00:50:54.391Z,18.06
2019-02-26T00:51:52.856Z,18.06
2019-02-26T00:52:49.624Z,18.06
2019-02-26T00:53:48.826Z,18.06
2019-02-26T00:54:44.815Z,18.06
2019-02-26T00:55:41.422Z,18.06
2019-02-26T00:56:38.728Z,18.06
2019-02-26T00:57:38.379Z,18.06
2019-02-26T00:58:38.955Z,18.06
2019-02-26T00:59:36.414Z,18.06
2019-02-26T01:00:33.216Z,18.06
2019-02-26T01:01:30.926Z,18.06
2019-02-26T01:02:27.532Z,18.06
2019-02-26T01:03:24.250Z,18.06
2019-02-26T01:04:20.856Z,18.06
2019-02-26T01:05:17.450Z,18.06
2019-02-26T01:06:14.237Z,18.06
2019-02-26T01:07:10.938Z,18.06
2019-02-26T01:08:10.620Z,18.06
2019-02-26T01:09:10.697Z,18.06
2019-02-26T01:10:05.866Z,18.06
2019-02-26T01:11:03.916Z,18.06
2019-02-26T01:12:01.023Z,18.06
2019-02-26T01:12:58.681Z,18.06
2019-02-26T01:13:57.731Z,18.06
2019-02-26T01:14:56.250Z,18.06
2019-02-26T01:15:52.938Z,18.06
2019-02-26T01:16:49.621Z,18.00
2019-02-26T01:17:46.294Z,18.00
2019-02-26T01:18:44.466Z,18.06
2019-02-26T01:19:43.079Z,18.06
2019-02-26T01:20:39.922Z,18.06
2019-02-26T01:21:37.911Z,18.00
2019-02-26T01:22:35.355Z,18.00
2019-02-26T01:23:33.254Z,18.00
2019-02-26T01:24:31.023Z,18.00
2019-02-26T01:25:28.481Z,18.00
2019-02-26T01:26:27.309Z,18.00
2019-02-26T01:27:23.570Z,18.00
2019-02-26T01:28:20.863Z,18.00
2019-02-26T01:29:20.892Z,18.00
2019-02-26T01:30:21.165Z,18.00
2019-02-26T01:31:15.879Z,18.00
2019-02-26T01:32:13.795Z,18.00
2019-02-26T01:33:10.989Z,18.00
2019-02-26T01:34:09.331Z,18.00
2019-02-26T01:35:08.207Z,18.00
2019-02-26T01:36:04.656Z,18.00
2019-02-26T01:37:03.052Z,18.00
2019-02-26T01:38:00.524Z,18.00
2019-02-26T01:38:57.709Z,18.00
2019-02-26T01:39:54.305Z,18.00
2019-02-26T01:40:52.038Z,18.00
2019-02-26T01:41:51.144Z,18.00
2019-02-26T01:42:52.189Z,18.00
2019-02-26T01:43:46.758Z,18.00
2019-02-26T01:44:44.468Z,18.00
2019-02-26T01:45:41.329Z,18.00
2019-02-26T01:46:38.980Z,18.00
2019-02-26T01:47:36.446Z,18.00
2019-02-26T01:48:34.482Z,18.00
2019-02-26T01:49:31.584Z,18.00
2019-02-26T01:50:28.839Z,18.00
2019-02-26T01:51:28.479Z,18.00
2019-02-26T01:52:25.206Z,18.00
2019-02-26T01:53:23.616Z,18.00
2019-02-26T01:54:20.340Z,18.00
2019-02-26T01:55:18.280Z,18.00
2019-02-26T01:56:17.756Z,18.00
2019-02-26T01:57:14.260Z,18.00
2019-02-26T01:58:10.882Z,18.00
2019-02-26T01:59:07.567Z,17.94
2019-02-26T02:00:06.513Z,18.00
2019-02-26T02:01:03.186Z,17.94
2019-02-26T02:02:00.051Z,18.00
2019-02-26T02:02:56.735Z,17.94
2019-02-26T02:03:56.029Z,17.94
2019-02-26T02:04:52.073Z,17.94
2019-02-26T02:05:50.345Z,18.00
2019-02-26T02:06:47.427Z,17.94
2019-02-26T02:07:48.896Z,17.94
2019-02-26T02:08:45.422Z,17.94
2019-02-26T02:09:41.317Z,17.94
2019-02-26T02:10:37.931Z,17.94
2019-02-26T02:11:35.883Z,17.94
2019-02-26T02:12:34.406Z,17.94
2019-02-26T02:13:33.117Z,17.94
2019-02-26T02:14:30.182Z,17.94
2019-02-26T02:15:26.780Z,17.94
2019-02-26T02:16:24.276Z,17.94
2019-02-26T02:17:21.914Z,17.94
2019-02-26T02:18:22.453Z,17.94
2019-02-26T02:19:20.111Z,17.94
2019-02-26T02:20:19.423Z,17.94
2019-02-26T02:21:14.779Z,17.94
2019-02-26T02:22:12.275Z,17.94
2019-02-26T02:23:09.920Z,17.94
2019-02-26T02:24:10.760Z,17.94
2019-02-26T02:25:05.109Z,17.94
2019-02-26T02:26:04.231Z,17.94
2019-02-26T02:27:00.564Z,17.94
2019-02-26T02:27:59.357Z,17.94
2019-02-26T02:28:55.689Z,17.94
2019-02-26T02:29:53.463Z,17.94
2019-02-26T02:30:50.779Z,17.94
2019-02-26T02:31:47.399Z,17.94
2019-02-26T02:32:44.699Z,17.94
2019-02-26T02:33:42.522Z,17.94
2019-02-26T02:34:39.907Z,17.94
2019-02-26T02:35:37.595Z,17.94
2019-02-26T02:36:34.486Z,17.94
2019-02-26T02:37:31.946Z,17.94
2019-02-26T02:38:28.810Z,17.87
2019-02-26T02:39:26.548Z,17.87
2019-02-26T02:40:23.995Z,17.94
2019-02-26T02:41:20.751Z,17.87
2019-02-26T02:42:19.054Z,17.87
2019-02-26T02:43:17.971Z,17.94
2019-02-26T02:44:15.391Z,17.87
2019-02-26T02:45:14.396Z,17.87
2019-02-26T02:46:11.546Z,17.87
2019-02-26T02:47:09.313Z,17.87
2019-02-26T02:48:08.990Z,17.87
2019-02-26T02:49:07.501Z,17.87
2019-02-26T02:50:05.858Z,17.87
2019-02-26T02:51:05.352Z,17.87
2019-02-26T02:52:02.141Z,17.87
2019-02-26T02:53:02.075Z,17.87
2019-02-26T02:53:59.334Z,17.87
2019-02-26T02:54:56.097Z,17.87
2019-02-26T02:55:55.463Z,17.87
2019-02-26T02:56:52.066Z,17.87
2019-02-26T02:57:52.361Z,17.87
2019-02-26T02:58:49.535Z,17.87
2019-02-26T02:59:46.320Z,17.87
2019-02-26T03:00:42.914Z,17.87
2019-02-26T03:01:39.518Z,17.87
2019-02-26T03:02:40.558Z,17.87
2019-02-26T03:03:34.650Z,17.87
2019-02-26T03:04:34.499Z,17.87
2019-02-26T03:05:32.066Z,17.87
2019-02-26T03:06:30.103Z,17.87
2019-02-26T03:07:29.342Z,17.87
2019-02-26T03:08:25.266Z,17.87
2019-02-26T03:09:21.863Z,17.87
2019-02-26T03:10:18.475Z,17.87
2019-02-26T03:11:15.465Z,17.87
2019-02-26T03:12:12.360Z,17.87
2019-02-26T03:13:09.069Z,17.87
2019-02-26T03:14:07.818Z,17.87
2019-02-26T03:15:05.483Z,17.87
2019-02-26T03:16:03.059Z,17.87
2019-02-26T03:16:59.668Z,17.87
2019-02-26T03:17:56.287Z,17.87
2019-02-26T03:18:52.902Z,17.87
2019-02-26T03:19:49.498Z,17.81
2019-02-26T03:20:46.384Z,17.81
2019-02-26T03:21:45.372Z,17.87
2019-02-26T03:22:45.100Z,17.81
2019-02-26T03:23:41.278Z,17.81
2019-02-26T03:24:38.609Z,17.81
2019-02-26T03:25:35.206Z,17.81
2019-02-26T03:26:31.795Z,17.81
2019-02-26T03:27:31.349Z,17.81
2019-02-26T03:28:26.936Z,17.81
2019-02-26T03:29:23.742Z,17.81
2019-02-26T03:30:31.109Z,17.81
2019-02-26T03:31:18.936Z,17.81
2019-02-26T03:32:15.630Z,17.81
2019-02-26T03:33:12.468Z,17.81
2019-02-26T03:34:14.636Z,17.81
2019-02-26T03:35:10.244Z,17.81
2019-02-26T03:36:07.985Z,17.81
2019-02-26T03:37:06.273Z,17.81
2019-02-26T03:38:03.616Z,17.81
2019-02-26T03:39:02.750Z,17.81
2019-02-26T03:40:00.136Z,17.81
2019-02-26T03:40:59.106Z,17.81
2019-02-26T03:41:56.500Z,17.81
2019-02-26T03:42:53.322Z,17.81
2019-02-26T03:43:49.938Z,17.81
2019-02-26T03:44:47.022Z,17.81
2019-02-26T03:45:47.355Z,17.81
2019-02-26T03:46:42.340Z,17.81
2019-02-26T03:47:40.632Z,17.81
2019-02-26T03:48:37.663Z,17.81
2019-02-26T03:49:34.275Z,17.81
2019-02-26T03:50:31.204Z,17.81
2019-02-26T03:51:27.794Z,17.81
2019-02-26T03:52:24.392Z,17.81
2019-02-26T03:53:25.553Z,17.81
2019-02-26T03:54:19.526Z,17.81
2019-02-26T03:55:18.861Z,17.81
2019-02-26T03:56:15.438Z,17.81
2019-02-26T03:57:14.222Z,17.81
2019-02-26T03:58:11.646Z,17.81
2019-02-26T03:59:09.530Z,17.81
2019-02-26T04:00:08.709Z,17.75
2019-02-26T04:01:08.447Z,17.81
2019-02-26T04:02:04.184Z,17.81
2019-02-26T04:03:00.771Z,17.81
2019-02-26T04:03:59.624Z,17.81
2019-02-26T04:04:57.084Z,17.81
2019-02-26T04:05:57.104Z,17.75
2019-02-26T04:06:52.913Z,17.75
2019-02-26T04:07:52.438Z,17.75
2019-02-26T04:08:50.328Z,17.75
2019-02-26T04:09:47.329Z,17.75
2019-02-26T04:10:47.237Z,17.75
2019-02-26T04:11:45.548Z,17.75
2019-02-26T04:12:44.610Z,17.75
2019-02-26T04:13:41.038Z,17.75
2019-02-26T04:14:39.119Z,17.75
2019-02-26T04:15:38.217Z,17.75
2019-02-26T04:16:35.278Z,17.75
2019-02-26T04:17:33.665Z,17.75
2019-02-26T04:18:34.167Z,17.75
2019-02-26T04:19:29.794Z,17.75
2019-02-26T04:20:27.805Z,17.75
2019-02-26T04:21:24.696Z,17.75
2019-02-26T04:22:23.271Z,17.75
2019-02-26T04:23:21.875Z,17.75
2019-02-26T04:24:18.435Z,17.75
2019-02-26T04:25:15.069Z,17.75
2019-02-26T04:26:15.886Z,17.75
2019-02-26T04:27:10.646Z,17.75
2019-02-26T04:28:08.173Z,17.75
2019-02-26T04:29:05.754Z,17.75
2019-02-26T04:30:02.381Z,17.75
2019-02-26T04:30:59.101Z,17.75
2019-02-26T04:31:57.733Z,17.75
2019-02-26T04:32:54.350Z,17.75
2019-02-26T04:33:53.050Z,17.75
2019-02-26T04:34:51.349Z,17.75
2019-02-26T04:35:50.019Z,17.75
2019-02-26T04:36:47.178Z,17.75
2019-02-26T04:37:43.995Z,17.75
2019-02-26T04:38:40.590Z,17.75
2019-02-26T04:39:39.384Z,17.75
2019-02-26T04:40:38.156Z,17.75
2019-02-26T04:41:34.309Z,17.75
2019-02-26T04:42:32.741Z,17.75
2019-02-26T04:43:31.370Z,17.75
2019-02-26T04:44:29.254Z,17.75
2019-02-26T04:45:26.738Z,17.75
2019-02-26T04:46:25.283Z,17.75
2019-02-26T04:47:24.044Z,17.75
2019-02-26T04:48:23.651Z,17.75
2019-02-26T04:49:18.873Z,17.69
2019-02-26T04:50:15.537Z,17.69
2019-02-26T04:51:12.676Z,17.69
2019-02-26T04:52:10.931Z,17.69
2019-02-26T04:53:10.851Z,17.69
2019-02-26T04:54:06.438Z,17.69
2019-02-26T04:55:03.105Z,17.69
2019-02-26T04:56:02.282Z,17.69
2019-02-26T04:56:58.334Z,17.69
2019-02-26T04:57:54.918Z,17.69
2019-02-26T04:58:51.530Z,17.69
2019-02-26T04:59:48.134Z,17.69
2019-02-26T05:00:44.761Z,17.69
2019-02-26T05:01:41.540Z,17.69
2019-02-26T05:02:38.183Z,17.69
2019-02-26T05:03:34.781Z,17.69
2019-02-26T05:04:34.109Z,17.62
2019-02-26T05:05:32.007Z,17.62
2019-02-26T05:06:28.433Z,17.62
2019-02-26T05:07:25.075Z,17.62
2019-02-26T05:08:21.751Z,17.62
2019-02-26T05:09:18.450Z,17.56
2019-02-26T05:10:16.326Z,17.56
2019-02-26T05:11:17.453Z,17.56
2019-02-26T05:12:11.734Z,17.56
2019-02-26T05:13:09.695Z,17.50
2019-02-26T05:14:07.204Z,17.50
2019-02-26T05:15:05.125Z,17.44
2019-02-26T05:16:01.891Z,17.44
2019-02-26T05:16:58.504Z,17.37
2019-02-26T05:17:55.463Z,17.31
2019-02-26T05:18:54.939Z,17.19
2019-02-26T05:19:51.805Z,17.06
2019-02-26T05:20:48.670Z,17.00
2019-02-26T05:21:45.267Z,16.87
2019-02-26T05:22:41.922Z,16.75
2019-02-26T05:23:38.621Z,16.69
2019-02-26T05:24:35.277Z,16.56
2019-02-26T05:25:34.414Z,16.50
2019-02-26T05:26:30.563Z,16.44
2019-02-26T05:27:27.234Z,16.37
2019-02-26T05:28:24.181Z,16.31
2019-02-26T05:29:20.827Z,16.25
2019-02-26T05:30:21.696Z,16.19
2019-02-26T05:31:17.484Z,16.19
2019-02-26T05:32:14.272Z,16.12
2019-02-26T05:33:10.892Z,16.12
2019-02-26T05:34:07.742Z,16.06
2019-02-26T05:35:04.425Z,16.06
2019-02-26T05:36:01.036Z,16.00
2019-02-26T05:36:59.812Z,16.00
2019-02-26T05:38:00.385Z,15.94
2019-02-26T05:38:57.036Z,15.94
2019-02-26T05:39:54.652Z,15.94
2019-02-26T05:40:54.037Z,15.88
2019-02-26T05:41:52.354Z,15.88
2019-02-26T05:42:48.610Z,15.88
2019-02-26T05:43:49.295Z,15.88
2019-02-26T05:44:43.799Z,15.88
2019-02-26T05:45:40.423Z,15.94
2019-02-26T05:46:37.113Z,16.00
2019-02-26T05:47:33.926Z,16.12
2019-02-26T05:48:30.623Z,16.31
2019-02-26T05:49:27.633Z,20.56
2019-02-26T05:50:24.701Z,22.87
2019-02-26T05:51:21.582Z,24.00
2019-02-26T05:52:18.445Z,28.62
2019-02-26T05:53:15.100Z,33.38
2019-02-26T05:54:14.786Z,35.50
2019-02-26T05:55:13.935Z,35.75
2019-02-26T05:56:11.525Z,35.38
2019-02-26T05:57:10.798Z,35.25
2019-02-26T05:58:07.465Z,35.50
2019-02-26T05:59:07.020Z,35.69
2019-02-26T06:00:03.052Z,35.75
2019-02-26T06:01:00.083Z,35.56
2019-02-26T06:01:58.419Z,34.75
2019-02-26T06:02:55.220Z,33.06
2019-02-26T06:03:52.156Z,30.88
2019-02-26T06:04:48.787Z,29.31
2019-02-26T06:05:46.540Z,29.37
2019-02-26T06:06:43.907Z,30.44
2019-02-26T06:07:40.542Z,31.81
2019-02-26T06:08:39.226Z,33.13
2019-02-26T06:09:35.897Z,34.19
2019-02-26T06:10:32.689Z,35.00
2019-02-26T06:11:33.198Z,35.63
2019-02-26T06:12:32.410Z,36.13
2019-02-26T06:13:28.925Z,36.56
2019-02-26T06:14:27.417Z,36.81
2019-02-26T06:15:25.714Z,37.06
2019-02-26T06:16:24.236Z,37.25
2019-02-26T06:17:20.715Z,37.44
2019-02-26T06:18:17.331Z,37.63
2019-02-26T06:19:15.422Z,37.81
2019-02-26T06:20:12.486Z,38.13
2019-02-26T06:21:09.172Z,38.38
2019-02-26T06:22:06.023Z,38.63
2019-02-26T06:23:02.732Z,38.88
2019-02-26T06:23:59.342Z,39.06
2019-02-26T06:24:59.526Z,39.31
2019-02-26T06:25:56.006Z,39.50
2019-02-26T06:26:53.203Z,39.63
2019-02-26T06:27:49.817Z,39.44
2019-02-26T06:28:48.460Z,39.19
2019-02-26T06:29:44.927Z,38.94
2019-02-26T06:30:41.839Z,38.69
2019-02-26T06:31:41.720Z,38.56
2019-02-26T06:32:39.150Z,38.38
2019-02-26T06:33:36.589Z,38.25
2019-02-26T06:34:34.051Z,38.19
2019-02-26T06:35:31.538Z,38.13
2019-02-26T06:36:30.432Z,38.00
2019-02-26T06:37:29.066Z,37.81
2019-02-26T06:38:26.426Z,37.44
2019-02-26T06:39:24.577Z,36.75
2019-02-26T06:40:22.782Z,35.75
2019-02-26T06:41:19.391Z,34.50
2019-02-26T06:42:16.026Z,33.19
2019-02-26T06:43:12.624Z,32.19
2019-02-26T06:44:09.253Z,32.00
2019-02-26T06:45:08.346Z,32.88
2019-02-26T06:46:05.337Z,34.44
2019-02-26T06:47:04.676Z,36.00
2019-02-26T06:48:01.550Z,37.38
2019-02-26T06:48:58.140Z,38.50
2019-02-26T06:49:54.735Z,39.19
2019-02-26T06:50:51.368Z,39.31
2019-02-26T06:51:49.783Z,39.19
2019-02-26T06:52:47.672Z,38.94
2019-02-26T06:53:47.386Z,38.75
2019-02-26T06:54:47.749Z,38.56
2019-02-26T06:55:42.070Z,38.38
2019-02-26T06:56:43.294Z,38.25
2019-02-26T06:57:38.849Z,38.13
2019-02-26T06:58:37.615Z,38.00
2019-02-26T06:59:36.424Z,37.81
2019-02-26T07:00:32.782Z,37.38
2019-02-26T07:01:32.323Z,36.75
2019-02-26T07:02:29.004Z,35.81
2019-02-26T07:03:25.812Z,34.69
2019-02-26T07:04:22.969Z,33.44
2019-02-26T07:05:23.866Z,32.38
2019-02-26T07:06:20.633Z,32.13
2019-02-26T07:07:16.866Z,33.06
2019-02-26T07:08:13.486Z,34.56
2019-02-26T07:09:11.050Z,36.19
2019-02-26T07:10:08.614Z,37.75
2019-02-26T07:11:07.225Z,38.69
2019-02-26T07:12:03.986Z,39.00
2019-02-26T07:13:02.221Z,38.94
2019-02-26T07:14:01.298Z,38.81
2019-02-26T07:14:58.212Z,38.63
2019-02-26T07:15:55.034Z,38.44
2019-02-26T07:16:51.662Z,38.25
2019-02-26T07:17:48.344Z,38.13
2019-02-26T07:18:45.052Z,38.00
2019-02-26T07:19:41.680Z,37.75
2019-02-26T07:20:39.892Z,37.31
2019-02-26T07:21:37.991Z,36.63
2019-02-26T07:22:35.611Z,35.69
2019-02-26T07:23:33.137Z,34.63
2019-02-26T07:24:30.750Z,33.38
2019-02-26T07:25:27.359Z,32.38
2019-02-26T07:26:24.155Z,32.19
2019-02-26T07:27:20.762Z,33.06
2019-02-26T07:28:18.404Z,34.63
2019-02-26T07:29:17.505Z,36.31
2019-02-26T07:30:14.423Z,37.81
2019-02-26T07:31:12.140Z,38.56
2019-02-26T07:32:09.134Z,38.81
2019-02-26T07:33:07.566Z,38.75
2019-02-26T07:34:04.260Z,38.63
2019-02-26T07:35:00.856Z,38.44
2019-02-26T07:35:59.259Z,38.25
2019-02-26T07:36:56.300Z,38.06
2019-02-26T07:37:54.606Z,37.88
2019-02-26T07:38:53.880Z,37.50
2019-02-26T07:39:51.606Z,37.00
2019-02-26T07:40:48.515Z,36.31
2019-02-26T07:41:47.033Z,35.38
2019-02-26T07:42:46.427Z,34.31
2019-02-26T07:43:46.324Z,33.13
2019-02-26T07:44:41.019Z,32.19
2019-02-26T07:45:37.722Z,32.13
2019-02-26T07:46:35.669Z,33.19
2019-02-26T07:47:34.322Z,34.81
2019-02-26T07:48:33.636Z,36.50
2019-02-26T07:49:30.394Z,37.81
2019-02-26T07:50:31.416Z,38.38
2019-02-26T07:51:25.790Z,38.50
2019-02-26T07:52:24.341Z,38.31
2019-02-26T07:53:22.833Z,38.13
2019-02-26T07:54:19.473Z,37.94
2019-02-26T07:55:17.427Z,37.75
2019-02-26T07:56:14.306Z,37.50
2019-02-26T07:57:11.064Z,37.13
2019-02-26T07:58:09.204Z,36.69
2019-02-26T07:59:09.456Z,36.00
2019-02-26T08:00:04.725Z,35.19
2019-02-26T08:01:01.418Z,34.25
2019-02-26T08:01:58.229Z,33.25
2019-02-26T08:02:57.862Z,32.25
2019-02-26T08:03:53.454Z,31.75
2019-02-26T08:04:50.176Z,32.25
2019-02-26T08:05:47.114Z,33.63
2019-02-26T08:06:43.701Z,35.31
2019-02-26T08:07:40.547Z,36.88
2019-02-26T08:08:37.876Z,37.88
2019-02-26T08:09:35.744Z,38.19
2019-02-26T08:10:35.124Z,38.13
2019-02-26T08:11:31.247Z,38.00
2019-02-26T08:12:28.259Z,37.81
2019-02-26T08:13:28.530Z,37.56
2019-02-26T08:14:25.491Z,37.19
2019-02-26T08:15:22.021Z,36.69
2019-02-26T08:16:20.562Z,36.19
2019-02-26T08:17:17.131Z,35.44
2019-02-26T08:18:13.760Z,34.63
2019-02-26T08:19:10.379Z,33.75
2019-02-26T08:20:08.326Z,32.75
2019-02-26T08:21:05.702Z,31.87
2019-02-26T08:22:02.411Z,31.56
2019-02-26T08:23:01.122Z,32.19
2019-02-26T08:23:57.546Z,33.63
2019-02-26T08:24:55.411Z,35.31
2019-02-26T08:25:54.919Z,36.88
2019-02-26T08:26:51.470Z,37.69
2019-02-26T08:27:49.931Z,37.88
2019-02-26T08:28:48.227Z,37.81
2019-02-26T08:29:45.345Z,37.63
2019-02-26T08:30:44.462Z,37.38
2019-02-26T08:31:42.522Z,37.00
2019-02-26T08:32:39.294Z,36.50
2019-02-26T08:33:35.900Z,35.88
2019-02-26T08:34:32.762Z,35.25
2019-02-26T08:35:29.756Z,34.44
2019-02-26T08:36:26.378Z,33.63
2019-02-26T08:37:22.984Z,32.75
2019-02-26T08:38:19.588Z,31.87
2019-02-26T08:39:16.179Z,31.25
2019-02-26T08:40:12.806Z,31.31
2019-02-26T08:41:09.414Z,32.38
2019-02-26T08:42:06.016Z,33.81
2019-02-26T08:43:02.846Z,35.38
2019-02-26T08:43:59.556Z,36.69
2019-02-26T08:44:58.142Z,37.31
2019-02-26T08:45:54.835Z,37.38
2019-02-26T08:46:51.701Z,37.25
2019-02-26T08:47:48.573Z,37.00
2019-02-26T08:48:46.626Z,36.56
2019-02-26T08:49:45.642Z,36.13
2019-02-26T08:50:43.981Z,35.63
2019-02-26T08:51:40.870Z,34.94
2019-02-26T08:52:37.457Z,34.13
2019-02-26T08:53:34.062Z,33.31
2019-02-26T08:54:32.689Z,32.44
2019-02-26T08:55:29.204Z,31.56
2019-02-26T08:56:26.212Z,31.12
2019-02-26T08:57:24.338Z,31.62
2019-02-26T08:58:21.198Z,32.88
2019-02-26T08:59:19.594Z,34.44
2019-02-26T09:00:16.324Z,36.06
2019-02-26T09:01:13.211Z,37.00
2019-02-26T09:02:09.840Z,37.31
2019-02-26T09:03:08.305Z,37.31
2019-02-26T09:04:04.970Z,37.06
2019-02-26T09:05:02.758Z,36.75
2019-02-26T09:06:11.002Z,36.31
2019-02-26T09:07:00.298Z,35.75
2019-02-26T09:07:57.213Z,35.13
2019-02-26T09:08:55.163Z,34.38
2019-02-26T09:09:54.894Z,33.63
2019-02-26T09:10:51.566Z,32.81
2019-02-26T09:11:50.155Z,32.00
2019-02-26T09:12:48.652Z,31.25
2019-02-26T09:13:45.206Z,31.12
2019-02-26T09:14:42.736Z,31.87
2019-02-26T09:15:41.415Z,33.38
2019-02-26T09:16:38.935Z,34.94
2019-02-26T09:17:37.079Z,36.25
2019-02-26T09:18:37.490Z,36.81
2019-02-26T09:19:35.508Z,36.81
2019-02-26T09:20:32.241Z,36.50
2019-02-26T09:21:29.283Z,36.06
2019-02-26T09:22:26.667Z,35.50
2019-02-26T09:23:25.896Z,34.94
2019-02-26T09:24:23.109Z,34.31
2019-02-26T09:25:21.089Z,33.75
2019-02-26T09:26:18.278Z,33.06
2019-02-26T09:27:14.966Z,32.38
2019-02-26T09:28:11.774Z,31.75
2019-02-26T09:29:10.273Z,31.12
2019-02-26T09:30:10.471Z,30.56
2019-02-26T09:31:06.716Z,30.56
2019-02-26T09:32:06.743Z,31.44
2019-02-26T09:33:03.401Z,32.81
2019-02-26T09:34:01.046Z,34.25
2019-02-26T09:34:59.150Z,35.56
2019-02-26T09:35:56.725Z,36.25
2019-02-26T09:36:55.576Z,36.38
2019-02-26T09:37:53.356Z,36.13
2019-02-26T09:38:51.446Z,35.69
2019-02-26T09:39:48.224Z,35.19
2019-02-26T09:40:47.621Z,34.63
2019-02-26T09:41:45.544Z,34.00
2019-02-26T09:42:43.914Z,33.25
2019-02-26T09:43:42.839Z,32.50
2019-02-26T09:44:39.433Z,31.69
2019-02-26T09:45:36.450Z,31.00
2019-02-26T09:46:35.820Z,30.50
2019-02-26T09:47:33.447Z,30.88
2019-02-26T09:48:30.127Z,32.00
2019-02-26T09:49:28.490Z,33.44
2019-02-26T09:50:25.494Z,34.88
2019-02-26T09:51:22.194Z,36.00
2019-02-26T09:52:20.636Z,36.44
2019-02-26T09:53:17.338Z,36.31
2019-02-26T09:54:15.160Z,36.00
2019-02-26T09:55:12.810Z,35.56
2019-02-26T09:56:09.430Z,35.06
2019-02-26T09:57:06.192Z,34.50
2019-02-26T09:58:02.921Z,33.94
2019-02-26T09:58:59.522Z,33.25
2019-02-26T09:59:58.151Z,32.56
2019-02-26T10:00:54.707Z,31.87
2019-02-26T10:01:51.514Z,31.31
2019-02-26T10:02:49.495Z,30.81
2019-02-26T10:03:46.710Z,30.37
2019-02-26T10:04:45.070Z,30.06
2019-02-26T10:05:42.006Z,29.69
2019-02-26T10:06:40.664Z,29.37
2019-02-26T10:07:38.730Z,29.06
2019-02-26T10:08:35.914Z,28.75
2019-02-26T10:09:34.887Z,28.50
2019-02-26T10:10:33.504Z,28.31
2019-02-26T10:11:29.542Z,28.12
2019-02-26T10:12:27.990Z,27.94
2019-02-26T10:13:25.172Z,27.75
2019-02-26T10:14:23.254Z,27.62
2019-02-26T10:15:20.197Z,27.50
2019-02-26T10:16:16.907Z,27.37
2019-02-26T10:17:14.201Z,27.31
2019-02-26T10:18:12.173Z,27.19
2019-02-26T10:19:10.208Z,27.06
2019-02-26T10:20:09.365Z,27.00
2019-02-26T10:21:08.299Z,26.87
2019-02-26T10:22:09.071Z,26.81
2019-02-26T10:23:06.050Z,26.69
2019-02-26T10:24:02.033Z,26.62
2019-02-26T10:25:00.377Z,26.50
2019-02-26T10:25:57.834Z,26.44
2019-02-26T10:26:58.706Z,26.37
2019-02-26T10:27:54.181Z,26.31
2019-02-26T10:28:56.833Z,26.19
2019-02-26T10:29:49.949Z,26.12
2019-02-26T10:30:46.733Z,26.06
2019-02-26T10:31:43.350Z,26.00
2019-02-26T10:32:39.976Z,25.94
2019-02-26T10:33:40.139Z,25.81
2019-02-26T10:34:35.850Z,25.75
2019-02-26T10:35:33.545Z,25.69
2019-02-26T10:36:34.688Z,25.62
2019-02-26T10:37:31.393Z,25.56
2019-02-26T10:38:31.263Z,25.50
2019-02-26T10:39:28.358Z,25.44
2019-02-26T10:40:34.296Z,25.37
2019-02-26T10:41:23.719Z,25.31
2019-02-26T10:42:20.422Z,25.25
2019-02-26T10:43:17.063Z,25.19
2019-02-26T10:44:14.713Z,25.12
2019-02-26T10:45:11.538Z,25.06
2019-02-26T10:46:08.524Z,25.00
2019-02-26T10:47:06.417Z,24.94
2019-02-26T10:48:03.935Z,24.87
2019-02-26T10:49:00.605Z,24.81
2019-02-26T10:49:57.303Z,24.75
2019-02-26T10:50:54.066Z,24.69
2019-02-26T10:51:50.737Z,24.69
2019-02-26T10:52:47.414Z,24.63
2019-02-26T10:53:44.442Z,24.56
2019-02-26T10:54:43.607Z,24.50
2019-02-26T10:55:41.766Z,24.44
2019-02-26T10:56:40.083Z,24.37
2019-02-26T10:57:38.486Z,24.31
2019-02-26T10:58:35.367Z,24.31
2019-02-26T10:59:32.494Z,24.25
2019-02-26T11:00:32.186Z,24.19
2019-02-26T11:01:30.710Z,24.12
2019-02-26T11:02:27.932Z,24.06
2019-02-26T11:03:24.707Z,24.06
2019-02-26T11:04:21.449Z,24.00
2019-02-26T11:05:21.506Z,23.94
2019-02-26T11:06:19.048Z,23.87
2019-02-26T11:07:15.307Z,23.81
2019-02-26T11:08:11.923Z,23.75
2019-02-26T11:09:08.615Z,23.69
2019-02-26T11:10:05.342Z,23.62
2019-02-26T11:11:04.514Z,23.62
2019-02-26T11:12:02.902Z,23.56
2019-02-26T11:12:59.806Z,23.50
2019-02-26T11:13:56.655Z,23.50
2019-02-26T11:14:53.311Z,23.44
2019-02-26T11:15:51.663Z,23.38
2019-02-26T11:16:48.445Z,23.38
2019-02-26T11:17:45.762Z,23.31
2019-02-26T11:18:45.045Z,23.25
2019-02-26T11:19:42.474Z,23.19
2019-02-26T11:20:39.462Z,23.19
2019-02-26T11:21:36.169Z,23.12
2019-02-26T11:22:32.775Z,23.12
2019-02-26T11:23:31.088Z,23.06
2019-02-26T11:24:30.658Z,23.00
2019-02-26T11:25:27.571Z,23.00
2019-02-26T11:26:24.508Z,22.94
2019-02-26T11:27:21.133Z,22.94
2019-02-26T11:28:17.795Z,22.87
2019-02-26T11:29:14.417Z,22.81
2019-02-26T11:30:11.030Z,22.81
2019-02-26T11:31:09.096Z,22.75
2019-02-26T11:32:07.858Z,22.75
2019-02-26T11:33:05.894Z,22.69
2019-02-26T11:34:05.877Z,22.69
2019-02-26T11:35:02.351Z,22.62
2019-02-26T11:35:59.658Z,22.62
2019-02-26T11:36:58.395Z,22.56
2019-02-26T11:37:57.418Z,22.50
2019-02-26T11:38:53.750Z,22.50
2019-02-26T11:39:51.907Z,22.50
2019-02-26T11:40:48.901Z,22.44
2019-02-26T11:41:45.614Z,22.44
2019-02-26T11:42:44.387Z,22.37
2019-02-26T11:43:41.231Z,22.37
2019-02-26T11:44:37.985Z,22.37
2019-02-26T11:45:36.953Z,22.31
2019-02-26T11:46:34.388Z,22.31
2019-02-26T11:47:34.117Z,22.31
2019-02-26T11:48:31.374Z,22.31
2019-02-26T11:49:28.252Z,22.25
2019-02-26T11:50:27.979Z,22.25
2019-02-26T11:51:23.466Z,22.25
2019-02-26T11:52:20.455Z,22.19
2019-02-26T11:53:17.094Z,22.19
2019-02-26T11:54:15.102Z,22.13
2019-02-26T11:55:12.303Z,22.13
2019-02-26T11:56:09.044Z,22.13
2019-02-26T11:57:08.064Z,22.06
2019-02-26T11:58:07.706Z,22.06
2019-02-26T11:59:06.566Z,22.06
2019-02-26T12:00:02.394Z,22.00
2019-02-26T12:01:02.238Z,22.00
2019-02-26T12:02:01.254Z,22.00
2019-02-26T12:02:57.838Z,21.94
2019-02-26T12:03:56.075Z,21.94
2019-02-26T12:04:54.896Z,21.94
2019-02-26T12:05:53.513Z,21.87
2019-02-26T12:06:50.281Z,21.87
2019-02-26T12:07:48.783Z,21.87
2019-02-26T12:08:47.336Z,21.87
2019-02-26T12:09:44.518Z,21.81
2019-02-26T12:10:41.129Z,21.81
2019-02-26T12:11:37.770Z,21.75
2019-02-26T12:12:36.884Z,21.75
2019-02-26T12:13:33.044Z,21.75
2019-02-26T12:14:29.762Z,21.75
2019-02-26T12:15:27.171Z,21.69
2019-02-26T12:16:28.318Z,21.69
2019-02-26T12:17:23.400Z,21.69
2019-02-26T12:18:22.206Z,21.69
2019-02-26T12:19:18.906Z,21.62
2019-02-26T12:20:17.713Z,21.62
2019-02-26T12:21:14.053Z,21.62
2019-02-26T12:22:10.907Z,21.56